VOI125 MMMD-MMTG
Flight info
| Callsign | VOI125 |
|---|---|
| Flight time | 0h 56m |
| Altitude | 32000 |
| Route | ELSIP1A ELSIP UJ9 CME UJ25 TGZ |
| Aircraft | A320/M-SDE3FGHIRWY/LB1 |
Departure
| Time | 2026-04-29 03:13 |
|---|---|
| Airport | Manuel Crescencio Rejón International Airport (MMMD) |
Arrival
| Time | 2026-04-29 04:09 |
|---|---|
| Airport | Angel Albino Corzo International Airport (MMTG) |
| Time | Latitude | Longitude | Altitude | Speed | Heading |
|---|---|---|---|---|---|
| 2026-04-29 02:52 | 20.93514 | -89.66194 | 45 ft | 0 kts | 271° |
| 2026-04-29 03:01 | 20.93514 | -89.66185 | 43 ft | 3 kts | 271° |
| 2026-04-29 03:01 | 20.93513 | -89.66163 | 42 ft | 3 kts | 271° |
| 2026-04-29 03:02 | 20.93513 | -89.66143 | 42 ft | 3 kts | 263° |
| 2026-04-29 03:02 | 20.93519 | -89.66125 | 43 ft | 3 kts | 223° |
| 2026-04-29 03:02 | 20.93535 | -89.66113 | 45 ft | 3 kts | 198° |
| 2026-04-29 03:02 | 20.93552 | -89.66108 | 43 ft | 2 kts | 183° |
| 2026-04-29 03:03 | 20.93555 | -89.66108 | 42 ft | 0 kts | 181° |
| 2026-04-29 03:09 | 20.93549 | -89.66108 | 43 ft | 2 kts | 179° |
| 2026-04-29 03:09 | 20.93541 | -89.66094 | 43 ft | 3 kts | 107° |
| 2026-04-29 03:09 | 20.93543 | -89.66062 | 45 ft | 6 kts | 83° |
| 2026-04-29 03:10 | 20.93548 | -89.66020 | 45 ft | 6 kts | 83° |
| 2026-04-29 03:10 | 20.93556 | -89.65987 | 45 ft | 4 kts | 53° |
| 2026-04-29 03:10 | 20.93586 | -89.65978 | 45 ft | 6 kts | 5° |
| 2026-04-29 03:10 | 20.93634 | -89.65974 | 45 ft | 7 kts | 3° |
| 2026-04-29 03:11 | 20.93676 | -89.65972 | 44 ft | 7 kts | 3° |
| 2026-04-29 03:11 | 20.93725 | -89.65970 | 45 ft | 7 kts | 2° |
| 2026-04-29 03:11 | 20.93749 | -89.65948 | 46 ft | 2 kts | 99° |
| 2026-04-29 03:11 | 20.93742 | -89.65928 | 46 ft | 4 kts | 108° |
| 2026-04-29 03:12 | 20.93740 | -89.65922 | 44 ft | 0 kts | 107° |
| 2026-04-29 03:12 | 20.93738 | -89.65914 | 45 ft | 10 kts | 107° |
| 2026-04-29 03:12 | 20.93644 | -89.65549 | 42 ft | 88 kts | 105° |
| 2026-04-29 03:12 | 20.93427 | -89.64702 | 43 ft | 144 kts | 105° |
| 2026-04-29 03:13 | 20.93139 | -89.63561 | 317 ft | 168 kts | 105° |
| 2026-04-29 03:13 | 20.92838 | -89.62327 | 935 ft | 175 kts | 105° |
| 2026-04-29 03:13 | 20.92512 | -89.61048 | 1623 ft | 180 kts | 106° |
| 2026-04-29 03:13 | 20.92160 | -89.59718 | 2128 ft | 197 kts | 107° |
| 2026-04-29 03:14 | 20.91731 | -89.58239 | 2481 ft | 221 kts | 114° |
| 2026-04-29 03:14 | 20.90668 | -89.56981 | 2930 ft | 244 kts | 154° |
| 2026-04-29 03:14 | 20.88983 | -89.56471 | 3572 ft | 260 kts | 173° |
| 2026-04-29 03:14 | 20.87157 | -89.56345 | 4552 ft | 265 kts | 179° |
| 2026-04-29 03:15 | 20.85300 | -89.56323 | 5535 ft | 269 kts | 180° |
| 2026-04-29 03:15 | 20.83416 | -89.56295 | 6501 ft | 273 kts | 179° |
| 2026-04-29 03:15 | 20.81499 | -89.56228 | 7448 ft | 277 kts | 178° |
| 2026-04-29 03:15 | 20.79562 | -89.56119 | 8368 ft | 281 kts | 177° |
| 2026-04-29 03:16 | 20.77594 | -89.55978 | 9257 ft | 285 kts | 178° |
| 2026-04-29 03:16 | 20.75600 | -89.56010 | 10116 ft | 289 kts | 182° |
| 2026-04-29 03:16 | 20.73521 | -89.56213 | 10505 ft | 312 kts | 191° |
| 2026-04-29 03:16 | 20.71377 | -89.56922 | 10786 ft | 334 kts | 204° |
| 2026-04-29 03:17 | 20.69348 | -89.58200 | 11354 ft | 344 kts | 218° |
| 2026-04-29 03:17 | 20.67610 | -89.59979 | 12078 ft | 349 kts | 231° |
| 2026-04-29 03:17 | 20.66121 | -89.62036 | 12809 ft | 352 kts | 232° |
| 2026-04-29 03:17 | 20.64623 | -89.64126 | 13531 ft | 356 kts | 232° |
| 2026-04-29 03:18 | 20.63111 | -89.66241 | 14228 ft | 360 kts | 232° |
| 2026-04-29 03:18 | 20.61585 | -89.68374 | 14908 ft | 364 kts | 232° |
| 2026-04-29 03:18 | 20.60043 | -89.70525 | 15554 ft | 367 kts | 232° |
| 2026-04-29 03:18 | 20.58456 | -89.72679 | 16189 ft | 371 kts | 228° |
| 2026-04-29 03:19 | 20.56633 | -89.74643 | 16801 ft | 374 kts | 224° |
| 2026-04-29 03:19 | 20.54763 | -89.76597 | 17433 ft | 378 kts | 224° |
| 2026-04-29 03:19 | 20.52893 | -89.78529 | 18018 ft | 381 kts | 224° |
| 2026-04-29 03:19 | 20.50975 | -89.80505 | 18632 ft | 385 kts | 224° |
| 2026-04-29 03:20 | 20.49048 | -89.82491 | 19235 ft | 388 kts | 224° |
| 2026-04-29 03:20 | 20.47091 | -89.84513 | 19837 ft | 392 kts | 224° |
| 2026-04-29 03:20 | 20.45126 | -89.86547 | 20421 ft | 395 kts | 224° |
| 2026-04-29 03:20 | 20.43148 | -89.88598 | 20979 ft | 399 kts | 224° |
| 2026-04-29 03:21 | 20.41148 | -89.90668 | 21516 ft | 402 kts | 224° |
| 2026-04-29 03:21 | 20.39135 | -89.92751 | 22028 ft | 405 kts | 224° |
| 2026-04-29 03:21 | 20.37102 | -89.94853 | 22521 ft | 408 kts | 224° |
| 2026-04-29 03:21 | 20.35055 | -89.96967 | 23009 ft | 411 kts | 224° |
| 2026-04-29 03:22 | 20.32991 | -89.99096 | 23488 ft | 415 kts | 224° |
| 2026-04-29 03:22 | 20.30912 | -90.01240 | 23957 ft | 418 kts | 224° |
| 2026-04-29 03:22 | 20.28818 | -90.03400 | 24420 ft | 421 kts | 224° |
| 2026-04-29 03:22 | 20.26708 | -90.05575 | 24871 ft | 423 kts | 224° |
| 2026-04-29 03:23 | 20.24584 | -90.07765 | 25308 ft | 426 kts | 224° |
| 2026-04-29 03:23 | 20.22449 | -90.09968 | 25734 ft | 429 kts | 224° |
| 2026-04-29 03:23 | 20.20295 | -90.12188 | 26147 ft | 432 kts | 224° |
| 2026-04-29 03:23 | 20.18127 | -90.14420 | 26554 ft | 435 kts | 224° |
| 2026-04-29 03:24 | 20.15950 | -90.16660 | 26966 ft | 437 kts | 224° |
| 2026-04-29 03:24 | 20.13751 | -90.18920 | 27361 ft | 440 kts | 224° |
| 2026-04-29 03:24 | 20.11572 | -90.21157 | 27760 ft | 443 kts | 224° |
| 2026-04-29 03:24 | 20.09349 | -90.23439 | 28147 ft | 446 kts | 224° |
| 2026-04-29 03:25 | 20.07111 | -90.25741 | 28532 ft | 448 kts | 224° |
| 2026-04-29 03:25 | 20.04865 | -90.28053 | 28903 ft | 451 kts | 224° |
| 2026-04-29 03:25 | 20.02604 | -90.30379 | 29263 ft | 453 kts | 224° |
| 2026-04-29 03:25 | 20.00329 | -90.32716 | 29620 ft | 456 kts | 224° |
| 2026-04-29 03:26 | 19.98041 | -90.35066 | 29975 ft | 459 kts | 224° |
| 2026-04-29 03:26 | 19.95743 | -90.37426 | 30325 ft | 461 kts | 224° |
| 2026-04-29 03:26 | 19.93430 | -90.39798 | 30723 ft | 462 kts | 224° |
| 2026-04-29 03:26 | 19.91118 | -90.42164 | 31225 ft | 460 kts | 224° |
| 2026-04-29 03:27 | 19.88817 | -90.44516 | 31714 ft | 459 kts | 224° |
| 2026-04-29 03:27 | 19.86512 | -90.46873 | 31954 ft | 460 kts | 224° |
| 2026-04-29 03:27 | 19.84219 | -90.49222 | 32010 ft | 455 kts | 224° |
| 2026-04-29 03:28 | 19.79769 | -90.53943 | 32009 ft | 451 kts | 226° |
| 2026-04-29 03:28 | 19.75495 | -90.58812 | 32009 ft | 451 kts | 227° |
| 2026-04-29 03:29 | 19.71238 | -90.63697 | 32009 ft | 451 kts | 227° |
| 2026-04-29 03:29 | 19.66946 | -90.68540 | 32009 ft | 451 kts | 226° |
| 2026-04-29 03:30 | 19.62622 | -90.73355 | 32010 ft | 451 kts | 226° |
| 2026-04-29 03:30 | 19.58305 | -90.78174 | 32011 ft | 451 kts | 226° |
| 2026-04-29 03:31 | 19.51866 | -90.85383 | 32012 ft | 451 kts | 226° |
| 2026-04-29 03:31 | 19.47553 | -90.90207 | 32013 ft | 451 kts | 226° |
| 2026-04-29 03:32 | 19.43238 | -90.95020 | 32014 ft | 451 kts | 226° |
| 2026-04-29 03:32 | 19.38917 | -90.99837 | 32014 ft | 451 kts | 226° |
| 2026-04-29 03:33 | 19.34600 | -91.04649 | 32014 ft | 451 kts | 226° |
| 2026-04-29 03:33 | 19.30280 | -91.09465 | 32015 ft | 451 kts | 226° |
| 2026-04-29 03:34 | 19.25957 | -91.14271 | 32015 ft | 451 kts | 226° |
| 2026-04-29 03:34 | 19.21629 | -91.19070 | 32015 ft | 451 kts | 226° |
| 2026-04-29 03:35 | 19.17295 | -91.23863 | 32015 ft | 451 kts | 226° |
| 2026-04-29 03:35 | 19.12957 | -91.28651 | 32015 ft | 451 kts | 226° |
| 2026-04-29 03:36 | 19.08618 | -91.33437 | 32016 ft | 451 kts | 226° |
| 2026-04-29 03:36 | 19.04282 | -91.38220 | 32016 ft | 451 kts | 226° |
| 2026-04-29 03:37 | 18.99941 | -91.42998 | 32016 ft | 451 kts | 226° |
| 2026-04-29 03:37 | 18.95626 | -91.47741 | 32016 ft | 451 kts | 226° |
| 2026-04-29 03:38 | 18.91295 | -91.52530 | 32016 ft | 451 kts | 226° |
| 2026-04-29 03:38 | 18.86979 | -91.57331 | 32016 ft | 451 kts | 226° |
| 2026-04-29 03:39 | 18.82661 | -91.62126 | 32017 ft | 451 kts | 226° |
| 2026-04-29 03:39 | 18.78335 | -91.66920 | 32017 ft | 451 kts | 226° |
| 2026-04-29 03:40 | 18.74008 | -91.71700 | 32017 ft | 451 kts | 226° |
| 2026-04-29 03:40 | 18.69682 | -91.76485 | 32017 ft | 451 kts | 226° |
| 2026-04-29 03:41 | 18.65093 | -91.80967 | 32017 ft | 450 kts | 214° |
| 2026-04-29 03:41 | 18.59678 | -91.84294 | 32015 ft | 450 kts | 209° |
| 2026-04-29 03:42 | 18.54211 | -91.87526 | 32015 ft | 451 kts | 209° |
| 2026-04-29 03:42 | 18.48751 | -91.90767 | 32016 ft | 451 kts | 209° |
| 2026-04-29 03:43 | 18.43286 | -91.94008 | 32016 ft | 451 kts | 209° |
| 2026-04-29 03:43 | 18.37825 | -91.97241 | 32017 ft | 451 kts | 209° |
| 2026-04-29 03:44 | 18.32385 | -92.00452 | 32017 ft | 451 kts | 209° |
| 2026-04-29 03:44 | 18.26920 | -92.03682 | 32018 ft | 451 kts | 209° |
| 2026-04-29 03:45 | 18.21457 | -92.06915 | 32018 ft | 451 kts | 209° |
| 2026-04-29 03:45 | 18.15990 | -92.10150 | 32018 ft | 451 kts | 209° |
| 2026-04-29 03:46 | 18.11445 | -92.12831 | 32018 ft | 451 kts | 209° |
| 2026-04-29 03:46 | 18.05938 | -92.16071 | 32018 ft | 451 kts | 209° |
| 2026-04-29 03:47 | 18.00507 | -92.19271 | 32018 ft | 451 kts | 209° |
| 2026-04-29 03:47 | 17.95042 | -92.22501 | 32017 ft | 450 kts | 209° |
| 2026-04-29 03:48 | 17.89579 | -92.25720 | 32017 ft | 450 kts | 209° |
| 2026-04-29 03:48 | 17.84109 | -92.28936 | 32017 ft | 450 kts | 209° |
| 2026-04-29 03:49 | 17.78644 | -92.32148 | 32017 ft | 450 kts | 209° |
| 2026-04-29 03:49 | 17.73176 | -92.35357 | 32017 ft | 450 kts | 209° |
| 2026-04-29 03:50 | 17.67704 | -92.38567 | 32017 ft | 450 kts | 209° |
| 2026-04-29 03:50 | 17.62236 | -92.41768 | 32016 ft | 450 kts | 209° |
| 2026-04-29 03:51 | 17.56763 | -92.44971 | 32017 ft | 450 kts | 209° |
| 2026-04-29 03:51 | 17.51301 | -92.48174 | 32015 ft | 450 kts | 209° |
| 2026-04-29 03:52 | 17.48561 | -92.49775 | 31606 ft | 451 kts | 209° |
| 2026-04-29 03:52 | 17.45806 | -92.51384 | 29872 ft | 458 kts | 209° |
| 2026-04-29 03:52 | 17.42969 | -92.53043 | 28323 ft | 473 kts | 209° |
| 2026-04-29 03:52 | 17.40101 | -92.54721 | 27542 ft | 470 kts | 209° |
| 2026-04-29 03:53 | 17.37269 | -92.56379 | 26835 ft | 465 kts | 209° |
| 2026-04-29 03:53 | 17.34492 | -92.58006 | 26050 ft | 461 kts | 209° |
| 2026-04-29 03:53 | 17.31709 | -92.59635 | 25289 ft | 456 kts | 209° |
| 2026-04-29 03:53 | 17.28952 | -92.61246 | 24522 ft | 452 kts | 209° |
| 2026-04-29 03:54 | 17.26217 | -92.62839 | 23765 ft | 448 kts | 209° |
| 2026-04-29 03:54 | 17.23509 | -92.64416 | 23016 ft | 444 kts | 209° |
| 2026-04-29 03:54 | 17.20820 | -92.65980 | 22270 ft | 439 kts | 209° |
| 2026-04-29 03:54 | 17.18168 | -92.67521 | 21539 ft | 434 kts | 209° |
| 2026-04-29 03:55 | 17.15543 | -92.69048 | 20824 ft | 429 kts | 209° |
| 2026-04-29 03:55 | 17.12959 | -92.70553 | 20161 ft | 423 kts | 209° |
| 2026-04-29 03:55 | 17.10405 | -92.72043 | 19526 ft | 417 kts | 209° |
| 2026-04-29 03:55 | 17.07892 | -92.73509 | 18965 ft | 410 kts | 209° |
| 2026-04-29 03:56 | 17.05417 | -92.74951 | 18394 ft | 405 kts | 209° |
| 2026-04-29 03:56 | 17.02969 | -92.76378 | 17781 ft | 401 kts | 209° |
| 2026-04-29 03:56 | 17.00511 | -92.77807 | 16712 ft | 409 kts | 209° |
| 2026-04-29 03:56 | 16.98018 | -92.79254 | 15831 ft | 409 kts | 209° |
| 2026-04-29 03:57 | 16.95543 | -92.80690 | 15193 ft | 404 kts | 209° |
| 2026-04-29 03:57 | 16.93122 | -92.82096 | 14533 ft | 400 kts | 209° |
| 2026-04-29 03:57 | 16.90704 | -92.83501 | 13847 ft | 396 kts | 209° |
| 2026-04-29 03:57 | 16.88308 | -92.84893 | 13158 ft | 392 kts | 209° |
| 2026-04-29 03:58 | 16.85955 | -92.86258 | 12907 ft | 374 kts | 209° |
| 2026-04-29 03:58 | 16.83742 | -92.87541 | 12856 ft | 355 kts | 209° |
| 2026-04-29 03:58 | 16.81622 | -92.88770 | 12628 ft | 343 kts | 209° |
| 2026-04-29 03:58 | 16.79569 | -92.89959 | 12397 ft | 332 kts | 209° |
| 2026-04-29 03:59 | 16.77575 | -92.91113 | 12093 ft | 320 kts | 209° |
| 2026-04-29 03:59 | 16.75693 | -92.92203 | 11788 ft | 303 kts | 209° |
| 2026-04-29 03:59 | 16.73873 | -92.93261 | 11393 ft | 296 kts | 209° |
| 2026-04-29 03:59 | 16.72106 | -92.94290 | 11270 ft | 295 kts | 209° |
| 2026-04-29 04:00 | 16.70319 | -92.95330 | 11132 ft | 295 kts | 209° |
| 2026-04-29 04:00 | 16.68528 | -92.96372 | 10796 ft | 294 kts | 209° |
| 2026-04-29 04:00 | 16.66744 | -92.97407 | 10412 ft | 294 kts | 209° |
| 2026-04-29 04:00 | 16.64957 | -92.98439 | 10029 ft | 294 kts | 209° |
| 2026-04-29 04:01 | 16.63169 | -92.99469 | 9641 ft | 294 kts | 209° |
| 2026-04-29 04:01 | 16.61381 | -93.00499 | 9247 ft | 294 kts | 209° |
| 2026-04-29 04:01 | 16.59572 | -93.01483 | 8865 ft | 293 kts | 201° |
| 2026-04-29 04:01 | 16.57576 | -93.01793 | 8482 ft | 292 kts | 174° |
| 2026-04-29 04:02 | 16.55661 | -93.01138 | 8085 ft | 292 kts | 148° |
| 2026-04-29 04:02 | 16.54198 | -92.99737 | 7700 ft | 281 kts | 132° |
| 2026-04-29 04:02 | 16.52921 | -92.98251 | 7326 ft | 271 kts | 132° |
| 2026-04-29 04:02 | 16.51664 | -92.96790 | 6964 ft | 271 kts | 132° |
| 2026-04-29 04:03 | 16.50400 | -92.95324 | 6599 ft | 273 kts | 132° |
| 2026-04-29 04:03 | 16.49130 | -92.93852 | 6234 ft | 274 kts | 132° |
| 2026-04-29 04:03 | 16.47851 | -92.92376 | 5865 ft | 274 kts | 133° |
| 2026-04-29 04:03 | 16.46593 | -92.90927 | 5489 ft | 265 kts | 133° |
| 2026-04-29 04:04 | 16.45284 | -92.89656 | 5213 ft | 250 kts | 153° |
| 2026-04-29 04:04 | 16.43677 | -92.89325 | 5019 ft | 231 kts | 191° |
| 2026-04-29 04:04 | 16.42294 | -92.90052 | 4857 ft | 225 kts | 227° |
| 2026-04-29 04:04 | 16.41618 | -92.91481 | 4677 ft | 224 kts | 264° |
| 2026-04-29 04:05 | 16.41894 | -92.93054 | 4516 ft | 224 kts | 300° |
| 2026-04-29 04:05 | 16.42960 | -92.94117 | 4337 ft | 211 kts | 333° |
| 2026-04-29 04:05 | 16.44261 | -92.94782 | 4076 ft | 200 kts | 325° |
| 2026-04-29 04:05 | 16.45327 | -92.95581 | 3798 ft | 182 kts | 325° |
| 2026-04-29 04:06 | 16.46326 | -92.96267 | 3572 ft | 162 kts | 327° |
| 2026-04-29 04:06 | 16.47246 | -92.96871 | 3361 ft | 153 kts | 327° |
| 2026-04-29 04:06 | 16.48135 | -92.97446 | 3160 ft | 149 kts | 327° |
| 2026-04-29 04:06 | 16.49012 | -92.98010 | 2953 ft | 148 kts | 327° |
| 2026-04-29 04:07 | 16.49884 | -92.98570 | 2767 ft | 147 kts | 327° |
| 2026-04-29 04:07 | 16.50752 | -92.99126 | 2572 ft | 146 kts | 327° |
| 2026-04-29 04:07 | 16.51618 | -92.99680 | 2385 ft | 146 kts | 328° |
| 2026-04-29 04:07 | 16.52480 | -93.00234 | 2190 ft | 146 kts | 327° |
| 2026-04-29 04:08 | 16.53340 | -93.00788 | 1991 ft | 145 kts | 327° |
| 2026-04-29 04:08 | 16.54199 | -93.01339 | 1799 ft | 145 kts | 328° |
| 2026-04-29 04:08 | 16.55060 | -93.01880 | 1616 ft | 144 kts | 327° |
| 2026-04-29 04:08 | 16.55884 | -93.02420 | 1514 ft | 126 kts | 328° |
| 2026-04-29 04:09 | 16.56481 | -93.02805 | 1515 ft | 78 kts | 328° |
| 2026-04-29 04:09 | 16.56884 | -93.03062 | 1513 ft | 54 kts | 328° |
| 2026-04-29 04:09 | 16.57052 | -93.03168 | 1514 ft | 15 kts | 343° |
| 2026-04-29 04:09 | 16.57149 | -93.03171 | 1513 ft | 14 kts | 303° |
| 2026-04-29 04:10 | 16.57085 | -93.03196 | 1514 ft | 15 kts | 144° |
| 2026-04-29 04:10 | 16.56991 | -93.03132 | 1513 ft | 18 kts | 148° |
| 2026-04-29 04:10 | 16.56880 | -93.03060 | 1512 ft | 20 kts | 148° |
| 2026-04-29 04:10 | 16.56756 | -93.02981 | 1515 ft | 22 kts | 148° |
| 2026-04-29 04:11 | 16.56617 | -93.02892 | 1515 ft | 25 kts | 148° |
| 2026-04-29 04:11 | 16.56466 | -93.02795 | 1515 ft | 27 kts | 148° |
| 2026-04-29 04:11 | 16.56299 | -93.02687 | 1511 ft | 28 kts | 148° |
| 2026-04-29 04:11 | 16.56178 | -93.02595 | 1512 ft | 18 kts | 123° |
| 2026-04-29 04:12 | 16.56111 | -93.02471 | 1511 ft | 19 kts | 119° |
| 2026-04-29 04:12 | 16.56065 | -93.02386 | 1514 ft | 11 kts | 119° |
| 2026-04-29 04:12 | 16.56026 | -93.02313 | 1514 ft | 9 kts | 118° |
| 2026-04-29 04:12 | 16.56034 | -93.02246 | 1514 ft | 7 kts | 56° |
| 2026-04-29 04:13 | 16.56038 | -93.02206 | 1514 ft | 7 kts | 122° |
| 2026-04-29 04:13 | 16.55991 | -93.02172 | 1514 ft | 10 kts | 149° |
| 2026-04-29 04:13 | 16.55926 | -93.02130 | 1512 ft | 11 kts | 148° |
| 2026-04-29 04:13 | 16.55897 | -93.02088 | 1514 ft | 7 kts | 83° |
| 2026-04-29 04:14 | 16.55916 | -93.02051 | 1514 ft | 5 kts | 59° |
| 2026-04-29 04:14 | 16.55952 | -93.02042 | 1514 ft | 6 kts | 2° |
| 2026-04-29 04:14 | 16.55973 | -93.02042 | 1513 ft | 0 kts | 1° |